sensor_id;sensor_type;location;lat;lon;timestamp;P1;durP1;ratioP1;P2;durP2;ratioP2
42036;SDS011;30340;52.004;5.908;2023-07-20T00:00:02;3.95;;;3.25;;
42036;SDS011;30340;52.004;5.908;2023-07-20T00:02:29;4.03;;;2.95;;
42036;SDS011;30340;52.004;5.908;2023-07-20T00:04:54;4.53;;;3.08;;
42036;SDS011;30340;52.004;5.908;2023-07-20T00:07:20;3.78;;;2.88;;
42036;SDS011;30340;52.004;5.908;2023-07-20T00:09:45;5.15;;;2.70;;
42036;SDS011;30340;52.004;5.908;2023-07-20T00:12:11;3.88;;;3.17;;
42036;SDS011;30340;52.004;5.908;2023-07-20T00:14:36;4.85;;;3.10;;
42036;SDS011;30340;52.004;5.908;2023-07-20T00:17:04;4.05;;;3.45;;
42036;SDS011;30340;52.004;5.908;2023-07-20T00:19:30;4.82;;;3.28;;
42036;SDS011;30340;52.004;5.908;2023-07-20T00:21:57;6.28;;;3.47;;
42036;SDS011;30340;52.004;5.908;2023-07-20T00:24:23;4.75;;;3.92;;
42036;SDS011;30340;52.004;5.908;2023-07-20T00:26:48;3.47;;;2.83;;
42036;SDS011;30340;52.004;5.908;2023-07-20T00:29:14;3.85;;;2.92;;
42036;SDS011;30340;52.004;5.908;2023-07-20T00:31:40;3.78;;;2.97;;
42036;SDS011;30340;52.004;5.908;2023-07-20T00:34:05;4.53;;;2.88;;
42036;SDS011;30340;52.004;5.908;2023-07-20T00:36:32;4.72;;;3.20;;
42036;SDS011;30340;52.004;5.908;2023-07-20T00:38:57;4.68;;;3.00;;
42036;SDS011;30340;52.004;5.908;2023-07-20T00:41:23;4.07;;;3.28;;
42036;SDS011;30340;52.004;5.908;2023-07-20T00:43:49;4.32;;;2.88;;
42036;SDS011;30340;52.004;5.908;2023-07-20T00:46:15;4.32;;;2.97;;
42036;SDS011;30340;52.004;5.908;2023-07-20T00:48:41;4.07;;;2.83;;
42036;SDS011;30340;52.004;5.908;2023-07-20T00:51:07;4.82;;;3.30;;
42036;SDS011;30340;52.004;5.908;2023-07-20T00:53:33;4.88;;;3.38;;
42036;SDS011;30340;52.004;5.908;2023-07-20T00:55:59;5.05;;;3.17;;
42036;SDS011;30340;52.004;5.908;2023-07-20T00:58:24;4.47;;;2.75;;
42036;SDS011;30340;52.004;5.908;2023-07-20T01:00:50;4.07;;;2.95;;
42036;SDS011;30340;52.004;5.908;2023-07-20T01:03:16;4.93;;;2.97;;
42036;SDS011;30340;52.004;5.908;2023-07-20T01:05:45;3.85;;;3.03;;
42036;SDS011;30340;52.004;5.908;2023-07-20T01:08:18;4.60;;;3.05;;
42036;SDS011;30340;52.004;5.908;2023-07-20T01:10:51;4.10;;;2.50;;
42036;SDS011;30340;52.004;5.908;2023-07-20T01:13:21;4.45;;;2.70;;
42036;SDS011;30340;52.004;5.908;2023-07-20T01:15:56;3.72;;;2.83;;
42036;SDS011;30340;52.004;5.908;2023-07-20T01:18:23;4.50;;;2.55;;
42036;SDS011;30340;52.004;5.908;2023-07-20T01:20:49;3.67;;;2.78;;
42036;SDS011;30340;52.004;5.908;2023-07-20T01:25:57;3.10;;;2.50;;
42036;SDS011;30340;52.004;5.908;2023-07-20T01:31:23;3.33;;;2.53;;
42036;SDS011;30340;52.004;5.908;2023-07-20T01:33:52;3.33;;;2.70;;
42036;SDS011;30340;52.004;5.908;2023-07-20T01:36:21;3.67;;;2.50;;
42036;SDS011;30340;52.004;5.908;2023-07-20T01:38:48;5.05;;;3.10;;
42036;SDS011;30340;52.004;5.908;2023-07-20T01:41:14;3.65;;;2.42;;
42036;SDS011;30340;52.004;5.908;2023-07-20T01:43:40;4.50;;;2.60;;
42036;SDS011;30340;52.004;5.908;2023-07-20T01:46:07;2.95;;;2.35;;
42036;SDS011;30340;52.004;5.908;2023-07-20T01:48:32;3.97;;;2.60;;
42036;SDS011;30340;52.004;5.908;2023-07-20T01:50:58;2.83;;;2.38;;
42036;SDS011;30340;52.004;5.908;2023-07-20T01:53:23;4.28;;;3.00;;
42036;SDS011;30340;52.004;5.908;2023-07-20T01:55:49;2.92;;;2.53;;
42036;SDS011;30340;52.004;5.908;2023-07-20T01:58:17;3.50;;;2.42;;
42036;SDS011;30340;52.004;5.908;2023-07-20T02:00:42;3.50;;;2.35;;
42036;SDS011;30340;52.004;5.908;2023-07-20T02:03:08;3.60;;;2.40;;
42036;SDS011;30340;52.004;5.908;2023-07-20T02:05:33;3.47;;;2.22;;
42036;SDS011;30340;52.004;5.908;2023-07-20T02:07:59;3.15;;;2.35;;
42036;SDS011;30340;52.004;5.908;2023-07-20T02:10:25;2.85;;;2.22;;
42036;SDS011;30340;52.004;5.908;2023-07-20T02:12:50;4.22;;;2.35;;
42036;SDS011;30340;52.004;5.908;2023-07-20T02:15:16;3.83;;;2.38;;
42036;SDS011;30340;52.004;5.908;2023-07-20T02:17:43;2.88;;;2.30;;
42036;SDS011;30340;52.004;5.908;2023-07-20T02:20:09;2.55;;;2.13;;
42036;SDS011;30340;52.004;5.908;2023-07-20T02:22:36;3.58;;;2.40;;
42036;SDS011;30340;52.004;5.908;2023-07-20T02:25:03;2.80;;;2.00;;
42036;SDS011;30340;52.004;5.908;2023-07-20T02:27:35;2.33;;;1.70;;
42036;SDS011;30340;52.004;5.908;2023-07-20T02:30:01;2.20;;;1.90;;
42036;SDS011;30340;52.004;5.908;2023-07-20T02:32:28;1.98;;;1.77;;
42036;SDS011;30340;52.004;5.908;2023-07-20T02:34:54;2.45;;;1.60;;
42036;SDS011;30340;52.004;5.908;2023-07-20T02:37:20;2.40;;;1.98;;
42036;SDS011;30340;52.004;5.908;2023-07-20T02:39:46;2.50;;;1.70;;
42036;SDS011;30340;52.004;5.908;2023-07-20T02:42:11;2.05;;;1.70;;
42036;SDS011;30340;52.004;5.908;2023-07-20T02:44:38;2.45;;;2.00;;
42036;SDS011;30340;52.004;5.908;2023-07-20T02:47:04;2.75;;;2.00;;
42036;SDS011;30340;52.004;5.908;2023-07-20T02:49:29;2.20;;;2.00;;
42036;SDS011;30340;52.004;5.908;2023-07-20T02:51:55;2.80;;;2.10;;
42036;SDS011;30340;52.004;5.908;2023-07-20T02:54:20;2.85;;;2.00;;
42036;SDS011;30340;52.004;5.908;2023-07-20T02:56:46;2.92;;;1.80;;
42036;SDS011;30340;52.004;5.908;2023-07-20T02:59:12;2.75;;;1.70;;
42036;SDS011;30340;52.004;5.908;2023-07-20T03:01:37;2.22;;;1.75;;
42036;SDS011;30340;52.004;5.908;2023-07-20T03:04:03;2.20;;;1.90;;
42036;SDS011;30340;52.004;5.908;2023-07-20T03:06:29;2.25;;;1.70;;
42036;SDS011;30340;52.004;5.908;2023-07-20T03:08:54;2.92;;;1.63;;
42036;SDS011;30340;52.004;5.908;2023-07-20T03:11:20;2.05;;;1.80;;
42036;SDS011;30340;52.004;5.908;2023-07-20T03:13:46;3.30;;;2.00;;
42036;SDS011;30340;52.004;5.908;2023-07-20T03:16:13;1.95;;;1.77;;
42036;SDS011;30340;52.004;5.908;2023-07-20T03:18:44;2.80;;;1.80;;
42036;SDS011;30340;52.004;5.908;2023-07-20T03:21:10;2.20;;;2.00;;
42036;SDS011;30340;52.004;5.908;2023-07-20T03:23:37;1.75;;;1.58;;
42036;SDS011;30340;52.004;5.908;2023-07-20T03:26:03;2.22;;;1.70;;
42036;SDS011;30340;52.004;5.908;2023-07-20T03:28:29;2.08;;;1.67;;
42036;SDS011;30340;52.004;5.908;2023-07-20T03:30:58;2.75;;;1.70;;
42036;SDS011;30340;52.004;5.908;2023-07-20T03:33:27;2.80;;;1.80;;
42036;SDS011;30340;52.004;5.908;2023-07-20T03:35:54;1.88;;;1.55;;
42036;SDS011;30340;52.004;5.908;2023-07-20T03:38:24;1.60;;;1.40;;
42036;SDS011;30340;52.004;5.908;2023-07-20T03:40:51;1.90;;;1.80;;
42036;SDS011;30340;52.004;5.908;2023-07-20T03:43:21;1.80;;;1.70;;
42036;SDS011;30340;52.004;5.908;2023-07-20T03:45:48;2.22;;;1.60;;
42036;SDS011;30340;52.004;5.908;2023-07-20T03:48:18;1.55;;;1.45;;
42036;SDS011;30340;52.004;5.908;2023-07-20T03:50:46;2.45;;;1.83;;
42036;SDS011;30340;52.004;5.908;2023-07-20T03:53:12;1.70;;;1.55;;
42036;SDS011;30340;52.004;5.908;2023-07-20T03:55:38;2.35;;;1.60;;
42036;SDS011;30340;52.004;5.908;2023-07-20T03:58:05;1.70;;;1.60;;
42036;SDS011;30340;52.004;5.908;2023-07-20T04:00:31;1.40;;;1.30;;
42036;SDS011;30340;52.004;5.908;2023-07-20T04:02:57;1.70;;;1.60;;
42036;SDS011;30340;52.004;5.908;2023-07-20T04:05:22;2.00;;;1.80;;
42036;SDS011;30340;52.004;5.908;2023-07-20T04:07:48;2.40;;;2.10;;
42036;SDS011;30340;52.004;5.908;2023-07-20T04:10:14;1.90;;;1.65;;
42036;SDS011;30340;52.004;5.908;2023-07-20T04:12:39;2.75;;;2.20;;
42036;SDS011;30340;52.004;5.908;2023-07-20T04:15:05;2.17;;;1.95;;
42036;SDS011;30340;52.004;5.908;2023-07-20T04:17:31;3.15;;;2.45;;
42036;SDS011;30340;52.004;5.908;2023-07-20T04:19:56;2.72;;;2.40;;
42036;SDS011;30340;52.004;5.908;2023-07-20T04:22:22;3.25;;;2.65;;
42036;SDS011;30340;52.004;5.908;2023-07-20T04:24:47;2.20;;;2.00;;
42036;SDS011;30340;52.004;5.908;2023-07-20T04:27:13;2.58;;;2.28;;
42036;SDS011;30340;52.004;5.908;2023-07-20T04:29:39;2.67;;;2.20;;
42036;SDS011;30340;52.004;5.908;2023-07-20T04:32:04;2.40;;;2.20;;
42036;SDS011;30340;52.004;5.908;2023-07-20T04:34:30;2.35;;;2.10;;
42036;SDS011;30340;52.004;5.908;2023-07-20T04:36:56;3.28;;;2.10;;
42036;SDS011;30340;52.004;5.908;2023-07-20T04:39:21;2.60;;;2.40;;
42036;SDS011;30340;52.004;5.908;2023-07-20T04:41:47;2.25;;;1.85;;
42036;SDS011;30340;52.004;5.908;2023-07-20T04:44:13;2.53;;;2.17;;
42036;SDS011;30340;52.004;5.908;2023-07-20T04:46:39;2.28;;;2.08;;
42036;SDS011;30340;52.004;5.908;2023-07-20T04:49:05;2.30;;;2.10;;
42036;SDS011;30340;52.004;5.908;2023-07-20T04:51:31;2.00;;;1.90;;
42036;SDS011;30340;52.004;5.908;2023-07-20T04:53:56;1.92;;;1.77;;
42036;SDS011;30340;52.004;5.908;2023-07-20T04:56:22;1.90;;;1.77;;
42036;SDS011;30340;52.004;5.908;2023-07-20T04:58:49;2.10;;;1.90;;
42036;SDS011;30340;52.004;5.908;2023-07-20T05:01:15;2.35;;;2.15;;
42036;SDS011;30340;52.004;5.908;2023-07-20T05:03:40;2.03;;;1.83;;
42036;SDS011;30340;52.004;5.908;2023-07-20T05:06:06;2.67;;;2.47;;
42036;SDS011;30340;52.004;5.908;2023-07-20T05:08:32;2.42;;;2.22;;
42036;SDS011;30340;52.004;5.908;2023-07-20T05:10:57;2.25;;;2.05;;
42036;SDS011;30340;52.004;5.908;2023-07-20T05:13:24;2.17;;;1.98;;
42036;SDS011;30340;52.004;5.908;2023-07-20T05:15:53;2.15;;;1.95;;
42036;SDS011;30340;52.004;5.908;2023-07-20T05:18:19;2.38;;;2.17;;
42036;SDS011;30340;52.004;5.908;2023-07-20T05:20:48;1.70;;;1.60;;
42036;SDS011;30340;52.004;5.908;2023-07-20T05:23:17;1.63;;;1.52;;
42036;SDS011;30340;52.004;5.908;2023-07-20T05:25:43;1.77;;;1.67;;
42036;SDS011;30340;52.004;5.908;2023-07-20T05:28:09;1.95;;;1.77;;
42036;SDS011;30340;52.004;5.908;2023-07-20T05:30:35;1.52;;;1.42;;
42036;SDS011;30340;52.004;5.908;2023-07-20T05:33:00;1.70;;;1.60;;
42036;SDS011;30340;52.004;5.908;2023-07-20T05:35:26;1.75;;;1.50;;
42036;SDS011;30340;52.004;5.908;2023-07-20T05:37:52;1.92;;;1.80;;
42036;SDS011;30340;52.004;5.908;2023-07-20T05:40:17;1.50;;;1.40;;
42036;SDS011;30340;52.004;5.908;2023-07-20T05:42:44;1.40;;;1.30;;
42036;SDS011;30340;52.004;5.908;2023-07-20T05:45:16;1.30;;;1.20;;
42036;SDS011;30340;52.004;5.908;2023-07-20T05:47:42;1.38;;;1.27;;
42036;SDS011;30340;52.004;5.908;2023-07-20T05:50:08;1.63;;;1.52;;
42036;SDS011;30340;52.004;5.908;2023-07-20T05:52:34;1.40;;;1.30;;
42036;SDS011;30340;52.004;5.908;2023-07-20T05:54:59;1.63;;;1.20;;
42036;SDS011;30340;52.004;5.908;2023-07-20T05:57:25;1.33;;;1.20;;
42036;SDS011;30340;52.004;5.908;2023-07-20T05:59:51;1.25;;;1.15;;
42036;SDS011;30340;52.004;5.908;2023-07-20T06:02:16;2.00;;;1.40;;
42036;SDS011;30340;52.004;5.908;2023-07-20T06:04:42;1.35;;;1.10;;
42036;SDS011;30340;52.004;5.908;2023-07-20T06:07:07;2.10;;;1.05;;
42036;SDS011;30340;52.004;5.908;2023-07-20T06:09:33;1.23;;;0.90;;
42036;SDS011;30340;52.004;5.908;2023-07-20T06:11:59;1.38;;;0.90;;
42036;SDS011;30340;52.004;5.908;2023-07-20T06:14:25;1.27;;;0.95;;
42036;SDS011;30340;52.004;5.908;2023-07-20T06:16:50;0.80;;;0.80;;
42036;SDS011;30340;52.004;5.908;2023-07-20T06:19:19;1.08;;;0.80;;
42036;SDS011;30340;52.004;5.908;2023-07-20T06:21:44;3.20;;;0.80;;
42036;SDS011;30340;52.004;5.908;2023-07-20T06:24:10;0.85;;;0.65;;
42036;SDS011;30340;52.004;5.908;2023-07-20T06:26:35;1.65;;;0.70;;
42036;SDS011;30340;52.004;5.908;2023-07-20T06:29:04;0.70;;;0.70;;
42036;SDS011;30340;52.004;5.908;2023-07-20T06:31:31;0.80;;;0.68;;
42036;SDS011;30340;52.004;5.908;2023-07-20T06:33:57;1.02;;;0.70;;
42036;SDS011;30340;52.004;5.908;2023-07-20T06:36:23;1.75;;;0.70;;
42036;SDS011;30340;52.004;5.908;2023-07-20T06:38:50;0.63;;;0.63;;
42036;SDS011;30340;52.004;5.908;2023-07-20T06:41:16;0.88;;;0.77;;
42036;SDS011;30340;52.004;5.908;2023-07-20T06:43:42;0.82;;;0.70;;
42036;SDS011;30340;52.004;5.908;2023-07-20T06:46:07;1.02;;;0.70;;
42036;SDS011;30340;52.004;5.908;2023-07-20T06:48:33;2.20;;;0.75;;
42036;SDS011;30340;52.004;5.908;2023-07-20T06:50:58;1.13;;;0.60;;
42036;SDS011;30340;52.004;5.908;2023-07-20T06:53:24;1.00;;;0.70;;
42036;SDS011;30340;52.004;5.908;2023-07-20T06:55:50;0.80;;;0.52;;
42036;SDS011;30340;52.004;5.908;2023-07-20T06:58:15;1.95;;;0.70;;
42036;SDS011;30340;52.004;5.908;2023-07-20T07:00:42;0.90;;;0.57;;
42036;SDS011;30340;52.004;5.908;2023-07-20T07:03:09;0.63;;;0.50;;
42036;SDS011;30340;52.004;5.908;2023-07-20T07:05:35;0.63;;;0.52;;
42036;SDS011;30340;52.004;5.908;2023-07-20T07:08:02;0.70;;;0.70;;
42036;SDS011;30340;52.004;5.908;2023-07-20T07:10:28;1.08;;;0.50;;
42036;SDS011;30340;52.004;5.908;2023-07-20T07:12:54;2.00;;;0.80;;
42036;SDS011;30340;52.004;5.908;2023-07-20T07:15:19;1.02;;;0.55;;
42036;SDS011;30340;52.004;5.908;2023-07-20T07:17:45;1.08;;;0.60;;
42036;SDS011;30340;52.004;5.908;2023-07-20T07:20:11;1.63;;;0.80;;
42036;SDS011;30340;52.004;5.908;2023-07-20T07:22:36;0.68;;;0.50;;
42036;SDS011;30340;52.004;5.908;2023-07-20T07:25:02;0.80;;;0.70;;
42036;SDS011;30340;52.004;5.908;2023-07-20T07:27:28;0.88;;;0.70;;
42036;SDS011;30340;52.004;5.908;2023-07-20T07:29:53;0.40;;;0.40;;
42036;SDS011;30340;52.004;5.908;2023-07-20T07:32:20;0.50;;;0.50;;
42036;SDS011;30340;52.004;5.908;2023-07-20T07:34:46;0.40;;;0.40;;
42036;SDS011;30340;52.004;5.908;2023-07-20T07:37:12;0.45;;;0.45;;
42036;SDS011;30340;52.004;5.908;2023-07-20T07:39:38;0.60;;;0.60;;
42036;SDS011;30340;52.004;5.908;2023-07-20T07:42:04;0.60;;;0.40;;
42036;SDS011;30340;52.004;5.908;2023-07-20T07:44:30;0.50;;;0.45;;
42036;SDS011;30340;52.004;5.908;2023-07-20T07:46:56;2.00;;;0.70;;
42036;SDS011;30340;52.004;5.908;2023-07-20T07:49:22;0.90;;;0.68;;
42036;SDS011;30340;52.004;5.908;2023-07-20T07:51:48;0.80;;;0.40;;
42036;SDS011;30340;52.004;5.908;2023-07-20T07:54:13;0.65;;;0.60;;
42036;SDS011;30340;52.004;5.908;2023-07-20T07:56:39;0.80;;;0.65;;
42036;SDS011;30340;52.004;5.908;2023-07-20T07:59:05;1.15;;;0.50;;
42036;SDS011;30340;52.004;5.908;2023-07-20T08:01:31;0.60;;;0.60;;
42036;SDS011;30340;52.004;5.908;2023-07-20T08:03:57;0.70;;;0.50;;
42036;SDS011;30340;52.004;5.908;2023-07-20T08:06:23;0.93;;;0.57;;
42036;SDS011;30340;52.004;5.908;2023-07-20T08:08:49;0.50;;;0.50;;
42036;SDS011;30340;52.004;5.908;2023-07-20T08:11:15;0.70;;;0.52;;
42036;SDS011;30340;52.004;5.908;2023-07-20T08:13:41;0.45;;;0.45;;
42036;SDS011;30340;52.004;5.908;2023-07-20T08:16:07;0.95;;;0.50;;
42036;SDS011;30340;52.004;5.908;2023-07-20T08:18:32;0.85;;;0.50;;
42036;SDS011;30340;52.004;5.908;2023-07-20T08:20:58;0.90;;;0.60;;
42036;SDS011;30340;52.004;5.908;2023-07-20T08:23:23;0.60;;;0.60;;
42036;SDS011;30340;52.004;5.908;2023-07-20T08:25:49;1.10;;;0.50;;
42036;SDS011;30340;52.004;5.908;2023-07-20T08:28:15;1.05;;;0.47;;
42036;SDS011;30340;52.004;5.908;2023-07-20T08:30:42;1.05;;;0.52;;
42036;SDS011;30340;52.004;5.908;2023-07-20T08:33:15;1.25;;;0.60;;
42036;SDS011;30340;52.004;5.908;2023-07-20T08:35:44;0.57;;;0.50;;
42036;SDS011;30340;52.004;5.908;2023-07-20T08:38:10;1.50;;;0.60;;
42036;SDS011;30340;52.004;5.908;2023-07-20T08:40:42;0.57;;;0.57;;
42036;SDS011;30340;52.004;5.908;2023-07-20T08:43:12;1.48;;;0.60;;
42036;SDS011;30340;52.004;5.908;2023-07-20T08:45:40;0.50;;;0.50;;
42036;SDS011;30340;52.004;5.908;2023-07-20T08:48:06;0.95;;;0.40;;
42036;SDS011;30340;52.004;5.908;2023-07-20T08:50:33;1.27;;;0.63;;
42036;SDS011;30340;52.004;5.908;2023-07-20T08:52:59;0.38;;;0.38;;
42036;SDS011;30340;52.004;5.908;2023-07-20T08:55:26;1.15;;;0.52;;
42036;SDS011;30340;52.004;5.908;2023-07-20T08:57:55;0.50;;;0.50;;
42036;SDS011;30340;52.004;5.908;2023-07-20T09:00:22;0.68;;;0.60;;
42036;SDS011;30340;52.004;5.908;2023-07-20T09:02:49;0.80;;;0.60;;
42036;SDS011;30340;52.004;5.908;2023-07-20T09:05:17;0.40;;;0.40;;
42036;SDS011;30340;52.004;5.908;2023-07-20T09:07:47;0.85;;;0.50;;
42036;SDS011;30340;52.004;5.908;2023-07-20T09:10:13;1.10;;;0.50;;
42036;SDS011;30340;52.004;5.908;2023-07-20T09:12:39;0.82;;;0.60;;
42036;SDS011;30340;52.004;5.908;2023-07-20T09:15:06;0.60;;;0.50;;
42036;SDS011;30340;52.004;5.908;2023-07-20T09:17:33;0.50;;;0.50;;
42036;SDS011;30340;52.004;5.908;2023-07-20T09:20:01;0.50;;;0.40;;
42036;SDS011;30340;52.004;5.908;2023-07-20T09:22:33;0.57;;;0.50;;
42036;SDS011;30340;52.004;5.908;2023-07-20T09:24:59;1.58;;;0.60;;
42036;SDS011;30340;52.004;5.908;2023-07-20T09:27:37;1.00;;;0.50;;
42036;SDS011;30340;52.004;5.908;2023-07-20T09:30:04;0.40;;;0.40;;
42036;SDS011;30340;52.004;5.908;2023-07-20T09:32:32;0.57;;;0.40;;
42036;SDS011;30340;52.004;5.908;2023-07-20T09:35:04;0.60;;;0.50;;
42036;SDS011;30340;52.004;5.908;2023-07-20T09:37:30;0.50;;;0.50;;
42036;SDS011;30340;52.004;5.908;2023-07-20T09:39:58;0.90;;;0.55;;
42036;SDS011;30340;52.004;5.908;2023-07-20T09:42:25;0.80;;;0.50;;
42036;SDS011;30340;52.004;5.908;2023-07-20T09:44:51;0.40;;;0.40;;
42036;SDS011;30340;52.004;5.908;2023-07-20T09:47:21;0.82;;;0.50;;
42036;SDS011;30340;52.004;5.908;2023-07-20T09:49:48;1.83;;;0.65;;
42036;SDS011;30340;52.004;5.908;2023-07-20T09:52:14;0.73;;;0.57;;
42036;SDS011;30340;52.004;5.908;2023-07-20T09:54:40;0.50;;;0.50;;
42036;SDS011;30340;52.004;5.908;2023-07-20T09:57:11;0.40;;;0.40;;
42036;SDS011;30340;52.004;5.908;2023-07-20T09:59:38;0.73;;;0.43;;
42036;SDS011;30340;52.004;5.908;2023-07-20T10:02:04;1.48;;;0.50;;
42036;SDS011;30340;52.004;5.908;2023-07-20T10:04:38;0.50;;;0.50;;
42036;SDS011;30340;52.004;5.908;2023-07-20T10:07:07;0.40;;;0.40;;
42036;SDS011;30340;52.004;5.908;2023-07-20T10:09:39;0.63;;;0.60;;
42036;SDS011;30340;52.004;5.908;2023-07-20T10:12:06;0.85;;;0.60;;
42036;SDS011;30340;52.004;5.908;2023-07-20T10:14:35;0.90;;;0.65;;
42036;SDS011;30340;52.004;5.908;2023-07-20T10:17:07;1.02;;;0.68;;
42036;SDS011;30340;52.004;5.908;2023-07-20T10:19:44;1.03;;;0.50;;
42036;SDS011;30340;52.004;5.908;2023-07-20T10:22:17;1.98;;;0.73;;
42036;SDS011;30340;52.004;5.908;2023-07-20T10:24:49;0.68;;;0.50;;
42036;SDS011;30340;52.004;5.908;2023-07-20T10:27:18;0.52;;;0.52;;
42036;SDS011;30340;52.004;5.908;2023-07-20T10:29:45;1.08;;;0.70;;
42036;SDS011;30340;52.004;5.908;2023-07-20T10:32:12;0.95;;;0.60;;
42036;SDS011;30340;52.004;5.908;2023-07-20T10:34:38;1.60;;;0.70;;
42036;SDS011;30340;52.004;5.908;2023-07-20T10:37:04;0.82;;;0.63;;
42036;SDS011;30340;52.004;5.908;2023-07-20T10:39:31;1.02;;;0.60;;
42036;SDS011;30340;52.004;5.908;2023-07-20T10:42:00;1.63;;;0.60;;
42036;SDS011;30340;52.004;5.908;2023-07-20T10:44:38;0.65;;;0.60;;
42036;SDS011;30340;52.004;5.908;2023-07-20T10:47:08;1.20;;;0.73;;
42036;SDS011;30340;52.004;5.908;2023-07-20T10:49:35;0.60;;;0.57;;
42036;SDS011;30340;52.004;5.908;2023-07-20T10:52:25;0.68;;;0.60;;
42036;SDS011;30340;52.004;5.908;2023-07-20T10:54:51;1.40;;;0.70;;
42036;SDS011;30340;52.004;5.908;2023-07-20T10:57:23;0.60;;;0.60;;
42036;SDS011;30340;52.004;5.908;2023-07-20T10:59:53;0.50;;;0.50;;
42036;SDS011;30340;52.004;5.908;2023-07-20T11:02:46;0.60;;;0.60;;
42036;SDS011;30340;52.004;5.908;2023-07-20T11:05:32;1.25;;;0.70;;
42036;SDS011;30340;52.004;5.908;2023-07-20T11:08:00;0.70;;;0.50;;
42036;SDS011;30340;52.004;5.908;2023-07-20T11:10:27;0.80;;;0.60;;
42036;SDS011;30340;52.004;5.908;2023-07-20T11:18:22;0.50;;;0.50;;
42036;SDS011;30340;52.004;5.908;2023-07-20T11:20:51;0.90;;;0.60;;
42036;SDS011;30340;52.004;5.908;2023-07-20T11:23:17;0.95;;;0.63;;
42036;SDS011;30340;52.004;5.908;2023-07-20T11:25:44;0.70;;;0.60;;
42036;SDS011;30340;52.004;5.908;2023-07-20T11:28:11;0.57;;;0.57;;
42036;SDS011;30340;52.004;5.908;2023-07-20T11:30:40;1.70;;;0.60;;
42036;SDS011;30340;52.004;5.908;2023-07-20T11:33:06;1.10;;;0.88;;
42036;SDS011;30340;52.004;5.908;2023-07-20T11:35:42;1.00;;;0.65;;
42036;SDS011;30340;52.004;5.908;2023-07-20T11:38:11;0.95;;;0.75;;
42036;SDS011;30340;52.004;5.908;2023-07-20T11:40:42;1.42;;;0.80;;
42036;SDS011;30340;52.004;5.908;2023-07-20T11:43:11;1.02;;;0.77;;
42036;SDS011;30340;52.004;5.908;2023-07-20T11:45:38;1.13;;;0.60;;
42036;SDS011;30340;52.004;5.908;2023-07-20T11:48:04;1.02;;;0.52;;
42036;SDS011;30340;52.004;5.908;2023-07-20T11:50:30;0.93;;;0.60;;
42036;SDS011;30340;52.004;5.908;2023-07-20T11:52:55;0.65;;;0.50;;
42036;SDS011;30340;52.004;5.908;2023-07-20T11:55:22;0.90;;;0.60;;
42036;SDS011;30340;52.004;5.908;2023-07-20T11:58:06;1.75;;;0.80;;
42036;SDS011;30340;52.004;5.908;2023-07-20T12:00:33;0.80;;;0.70;;
42036;SDS011;30340;52.004;5.908;2023-07-20T12:03:00;1.02;;;0.82;;
42036;SDS011;30340;52.004;5.908;2023-07-20T12:05:26;0.70;;;0.70;;
42036;SDS011;30340;52.004;5.908;2023-07-20T12:07:52;0.95;;;0.68;;
42036;SDS011;30340;52.004;5.908;2023-07-20T12:10:25;0.80;;;0.60;;
42036;SDS011;30340;52.004;5.908;2023-07-20T12:12:52;0.60;;;0.60;;
42036;SDS011;30340;52.004;5.908;2023-07-20T12:15:21;0.98;;;0.60;;
42036;SDS011;30340;52.004;5.908;2023-07-20T12:17:49;0.80;;;0.52;;
42036;SDS011;30340;52.004;5.908;2023-07-20T12:23:04;0.60;;;0.60;;
42036;SDS011;30340;52.004;5.908;2023-07-20T12:25:36;0.60;;;0.60;;
42036;SDS011;30340;52.004;5.908;2023-07-20T12:28:09;1.05;;;0.50;;
42036;SDS011;30340;52.004;5.908;2023-07-20T12:30:39;0.60;;;0.50;;
42036;SDS011;30340;52.004;5.908;2023-07-20T12:33:05;0.60;;;0.60;;
42036;SDS011;30340;52.004;5.908;2023-07-20T12:35:31;0.70;;;0.70;;
42036;SDS011;30340;52.004;5.908;2023-07-20T12:37:58;1.63;;;0.70;;
42036;SDS011;30340;52.004;5.908;2023-07-20T12:40:23;1.65;;;0.60;;
42036;SDS011;30340;52.004;5.908;2023-07-20T12:42:49;1.15;;;0.70;;
42036;SDS011;30340;52.004;5.908;2023-07-20T12:45:15;0.90;;;0.88;;
42036;SDS011;30340;52.004;5.908;2023-07-20T12:47:41;1.10;;;0.70;;
42036;SDS011;30340;52.004;5.908;2023-07-20T12:50:08;0.73;;;0.60;;
42036;SDS011;30340;52.004;5.908;2023-07-20T12:52:38;0.60;;;0.50;;
42036;SDS011;30340;52.004;5.908;2023-07-20T12:55:05;1.10;;;0.60;;
42036;SDS011;30340;52.004;5.908;2023-07-20T12:57:33;0.40;;;0.40;;
42036;SDS011;30340;52.004;5.908;2023-07-20T12:59:59;0.75;;;0.60;;
42036;SDS011;30340;52.004;5.908;2023-07-20T13:02:26;0.40;;;0.40;;
42036;SDS011;30340;52.004;5.908;2023-07-20T13:04:52;0.60;;;0.50;;
42036;SDS011;30340;52.004;5.908;2023-07-20T13:07:22;0.77;;;0.50;;
42036;SDS011;30340;52.004;5.908;2023-07-20T13:10:02;0.50;;;0.40;;
42036;SDS011;30340;52.004;5.908;2023-07-20T13:12:29;0.52;;;0.50;;
42036;SDS011;30340;52.004;5.908;2023-07-20T13:14:56;1.13;;;0.50;;
42036;SDS011;30340;52.004;5.908;2023-07-20T13:17:24;0.60;;;0.50;;
42036;SDS011;30340;52.004;5.908;2023-07-20T13:19:50;1.08;;;0.50;;
42036;SDS011;30340;52.004;5.908;2023-07-20T13:22:16;0.50;;;0.50;;
42036;SDS011;30340;52.004;5.908;2023-07-20T13:24:41;2.08;;;0.50;;
42036;SDS011;30340;52.004;5.908;2023-07-20T13:27:09;0.57;;;0.57;;
42036;SDS011;30340;52.004;5.908;2023-07-20T13:29:34;0.63;;;0.50;;
42036;SDS011;30340;52.004;5.908;2023-07-20T13:32:00;1.08;;;0.50;;
42036;SDS011;30340;52.004;5.908;2023-07-20T13:34:27;1.00;;;0.50;;
42036;SDS011;30340;52.004;5.908;2023-07-20T13:36:53;0.77;;;0.50;;
42036;SDS011;30340;52.004;5.908;2023-07-20T13:39:19;1.23;;;0.40;;
42036;SDS011;30340;52.004;5.908;2023-07-20T13:41:44;0.50;;;0.50;;
42036;SDS011;30340;52.004;5.908;2023-07-20T13:44:10;1.02;;;0.60;;
42036;SDS011;30340;52.004;5.908;2023-07-20T13:46:35;0.57;;;0.50;;
42036;SDS011;30340;52.004;5.908;2023-07-20T13:49:01;0.90;;;0.40;;
42036;SDS011;30340;52.004;5.908;2023-07-20T13:51:27;0.52;;;0.50;;
42036;SDS011;30340;52.004;5.908;2023-07-20T13:53:52;0.60;;;0.52;;
42036;SDS011;30340;52.004;5.908;2023-07-20T13:56:18;0.65;;;0.60;;
42036;SDS011;30340;52.004;5.908;2023-07-20T13:58:44;1.10;;;0.68;;
42036;SDS011;30340;52.004;5.908;2023-07-20T14:01:09;1.65;;;0.40;;
42036;SDS011;30340;52.004;5.908;2023-07-20T14:03:35;0.68;;;0.43;;
42036;SDS011;30340;52.004;5.908;2023-07-20T14:06:00;0.47;;;0.30;;
42036;SDS011;30340;52.004;5.908;2023-07-20T14:08:26;0.50;;;0.50;;
42036;SDS011;30340;52.004;5.908;2023-07-20T14:10:52;0.77;;;0.50;;
42036;SDS011;30340;52.004;5.908;2023-07-20T14:13:18;0.93;;;0.50;;
42036;SDS011;30340;52.004;5.908;2023-07-20T14:15:43;0.88;;;0.50;;
42036;SDS011;30340;52.004;5.908;2023-07-20T14:18:09;0.50;;;0.50;;
42036;SDS011;30340;52.004;5.908;2023-07-20T14:20:35;0.50;;;0.50;;
42036;SDS011;30340;52.004;5.908;2023-07-20T14:23:00;0.60;;;0.45;;
42036;SDS011;30340;52.004;5.908;2023-07-20T14:25:26;1.38;;;0.50;;
42036;SDS011;30340;52.004;5.908;2023-07-20T14:27:52;2.47;;;0.60;;
42036;SDS011;30340;52.004;5.908;2023-07-20T14:30:17;0.95;;;0.50;;
42036;SDS011;30340;52.004;5.908;2023-07-20T14:32:43;1.17;;;0.50;;
42036;SDS011;30340;52.004;5.908;2023-07-20T14:35:08;1.38;;;0.40;;
42036;SDS011;30340;52.004;5.908;2023-07-20T14:37:34;0.63;;;0.60;;
42036;SDS011;30340;52.004;5.908;2023-07-20T14:39:59;1.00;;;0.68;;
42036;SDS011;30340;52.004;5.908;2023-07-20T14:42:25;1.02;;;0.50;;
42036;SDS011;30340;52.004;5.908;2023-07-20T14:44:51;0.93;;;0.45;;
42036;SDS011;30340;52.004;5.908;2023-07-20T14:47:17;1.25;;;0.50;;
42036;SDS011;30340;52.004;5.908;2023-07-20T14:49:43;0.88;;;0.50;;
42036;SDS011;30340;52.004;5.908;2023-07-20T14:52:09;0.50;;;0.50;;
42036;SDS011;30340;52.004;5.908;2023-07-20T14:54:34;0.65;;;0.40;;
42036;SDS011;30340;52.004;5.908;2023-07-20T14:57:00;2.10;;;0.70;;
42036;SDS011;30340;52.004;5.908;2023-07-20T14:59:26;0.88;;;0.45;;